This is the latest recevied weather packets stored in our database for station/object OE-11144. If no packets are shown the sender has not sent any weather packets the latest 10 day(s).
| Time | Temp. | Humidity | Pressure | Rain* | Wind** | Luminosity | Snow |
|---|---|---|---|---|---|---|---|
| 1787835328 | 26.67° C | 48% | 1011.5 hPa | 0 mm | - | - | - |
| 1787834501 | 27.22° C | 46% | 1011.5 hPa | 0 mm | - | - | - |
| 1787834127 | 26.67° C | 50% | 1012 hPa | 0 mm | - | - | - |
| 1787833528 | 25.56° C | 53% | 1012.3 hPa | 0 mm | - | - | - |
| 1787832701 | 26.11° C | 54% | 1012.4 hPa | 0 mm | - | - | - |
| 1787832328 | 25° C | 51% | 1012.9 hPa | 0 mm | - | - | - |
| 1787831727 | 25.56° C | 58% | 1012.9 hPa | 0 mm | - | - | - |
| 1787830901 | 24.44° C | 58% | 1013.3 hPa | 0 mm | - | - | - |
| 1787830527 | 24.44° C | 60% | 1013.3 hPa | 0 mm | - | - | - |
| 1787829927 | 24.44° C | 60% | 1013.4 hPa | 0 mm | - | - | - |
| 1787829101 | 23.89° C | 59% | 1013.9 hPa | 0 mm | - | - | - |
| 1787828728 | 23.33° C | 63% | 1014.1 hPa | 0 mm | - | - | - |
| 1787828128 | 23.33° C | 66% | 1014.3 hPa | 0 mm | - | - | - |
| 1787827300 | 22.78° C | 65% | 1014.7 hPa | 0 mm | - | - | - |
| 1787826927 | 22.22° C | 66% | 1015 hPa | 0 mm | - | - | - |
| 1787826328 | 21.67° C | 66% | 1015 hPa | 0 mm | - | - | - |
| 1787825501 | 21.11° C | 68% | 1015.2 hPa | 0 mm | - | - | - |
| 1787825128 | 20.56° C | 73% | 1015.5 hPa | 0 mm | - | - | - |
| 1787824528 | 20.56° C | 71% | 1015.6 hPa | 0 mm | - | - | - |
| 1787823701 | 20° C | 72% | 1015.7 hPa | 0 mm | - | - | - |
| 1787823328 | 20° C | 75% | 1015.5 hPa | 0 mm | - | - | - |
| 1787822727 | 19.44° C | 75% | 1015.8 hPa | 0 mm | - | - | - |
| 1787821901 | 19.44° C | 73% | 1015.9 hPa | 0 mm | - | - | - |
| 1787821527 | 19.44° C | 76% | 1016.1 hPa | 0 mm | - | - | - |
| 1787820928 | 18.89° C | 77% | 1016.3 hPa | 0 mm | - | - | - |
* Rain latest hour (hover to see other rain measurements)
** Current wind speed in m/s (hover to see current wind gust speed)